sensor_id;sensor_type;location;lat;lon;timestamp;P1;durP1;ratioP1;P2;durP2;ratioP2
77359;SDS011;66426;51.454;7.266;2023-05-28T00:00:15;8.82;;;4.15;;
77359;SDS011;66426;51.454;7.266;2023-05-28T00:01:16;7.85;;;4.20;;
77359;SDS011;66426;51.454;7.266;2023-05-28T00:02:18;12.43;;;4.40;;
77359;SDS011;66426;51.454;7.266;2023-05-28T00:03:18;7.13;;;3.85;;
77359;SDS011;66426;51.454;7.266;2023-05-28T00:04:20;9.38;;;4.20;;
77359;SDS011;66426;51.454;7.266;2023-05-28T00:05:25;10.02;;;4.63;;
77359;SDS011;66426;51.454;7.266;2023-05-28T00:06:26;9.77;;;4.03;;
77359;SDS011;66426;51.454;7.266;2023-05-28T00:07:26;11.90;;;4.18;;
77359;SDS011;66426;51.454;7.266;2023-05-28T00:08:28;10.75;;;4.00;;
77359;SDS011;66426;51.454;7.266;2023-05-28T00:09:29;9.73;;;4.35;;
77359;SDS011;66426;51.454;7.266;2023-05-28T00:10:30;11.68;;;4.30;;
77359;SDS011;66426;51.454;7.266;2023-05-28T00:11:32;10.48;;;4.50;;
77359;SDS011;66426;51.454;7.266;2023-05-28T00:12:33;11.00;;;4.07;;
77359;SDS011;66426;51.454;7.266;2023-05-28T00:13:34;11.27;;;4.40;;
77359;SDS011;66426;51.454;7.266;2023-05-28T00:14:35;11.52;;;4.65;;
77359;SDS011;66426;51.454;7.266;2023-05-28T00:15:36;9.52;;;4.18;;
77359;SDS011;66426;51.454;7.266;2023-05-28T00:16:40;7.80;;;4.03;;
77359;SDS011;66426;51.454;7.266;2023-05-28T00:17:43;11.40;;;4.53;;
77359;SDS011;66426;51.454;7.266;2023-05-28T00:18:44;12.20;;;4.32;;
77359;SDS011;66426;51.454;7.266;2023-05-28T00:19:45;9.10;;;4.20;;
77359;SDS011;66426;51.454;7.266;2023-05-28T00:20:46;9.32;;;4.40;;
77359;SDS011;66426;51.454;7.266;2023-05-28T00:21:48;11.55;;;4.38;;
77359;SDS011;66426;51.454;7.266;2023-05-28T00:22:49;8.25;;;4.30;;
77359;SDS011;66426;51.454;7.266;2023-05-28T00:23:51;12.07;;;4.82;;
77359;SDS011;66426;51.454;7.266;2023-05-28T00:24:52;9.98;;;4.60;;
77359;SDS011;66426;51.454;7.266;2023-05-28T00:25:53;7.40;;;4.30;;
77359;SDS011;66426;51.454;7.266;2023-05-28T00:26:55;11.27;;;4.85;;
77359;SDS011;66426;51.454;7.266;2023-05-28T00:27:56;11.55;;;5.07;;
77359;SDS011;66426;51.454;7.266;2023-05-28T00:28:57;11.45;;;4.95;;
77359;SDS011;66426;51.454;7.266;2023-05-28T00:29:58;8.15;;;4.20;;
77359;SDS011;66426;51.454;7.266;2023-05-28T00:30:58;8.23;;;4.13;;
77359;SDS011;66426;51.454;7.266;2023-05-28T00:31:59;11.00;;;4.63;;
77359;SDS011;66426;51.454;7.266;2023-05-28T00:33:00;9.48;;;4.25;;
77359;SDS011;66426;51.454;7.266;2023-05-28T00:34:01;11.57;;;4.45;;
77359;SDS011;66426;51.454;7.266;2023-05-28T00:35:02;10.60;;;4.57;;
77359;SDS011;66426;51.454;7.266;2023-05-28T00:36:04;9.82;;;4.32;;
77359;SDS011;66426;51.454;7.266;2023-05-28T00:37:06;7.15;;;4.53;;
77359;SDS011;66426;51.454;7.266;2023-05-28T00:38:07;8.82;;;4.38;;
77359;SDS011;66426;51.454;7.266;2023-05-28T00:39:08;12.38;;;5.53;;
77359;SDS011;66426;51.454;7.266;2023-05-28T00:40:09;9.70;;;4.15;;
77359;SDS011;66426;51.454;7.266;2023-05-28T00:41:10;8.85;;;4.10;;
77359;SDS011;66426;51.454;7.266;2023-05-28T00:42:12;8.75;;;4.50;;
77359;SDS011;66426;51.454;7.266;2023-05-28T00:43:13;11.18;;;4.90;;
77359;SDS011;66426;51.454;7.266;2023-05-28T00:44:14;8.93;;;4.93;;
77359;SDS011;66426;51.454;7.266;2023-05-28T00:45:15;10.48;;;4.47;;
77359;SDS011;66426;51.454;7.266;2023-05-28T00:46:17;9.55;;;5.05;;
77359;SDS011;66426;51.454;7.266;2023-05-28T00:47:19;10.13;;;4.70;;
77359;SDS011;66426;51.454;7.266;2023-05-28T00:48:20;11.25;;;5.22;;
77359;SDS011;66426;51.454;7.266;2023-05-28T00:49:21;9.70;;;4.63;;
77359;SDS011;66426;51.454;7.266;2023-05-28T00:50:22;11.23;;;4.85;;
77359;SDS011;66426;51.454;7.266;2023-05-28T00:51:25;9.98;;;4.85;;
77359;SDS011;66426;51.454;7.266;2023-05-28T00:52:27;6.70;;;4.10;;
77359;SDS011;66426;51.454;7.266;2023-05-28T00:53:28;10.10;;;5.50;;
77359;SDS011;66426;51.454;7.266;2023-05-28T00:54:29;11.38;;;4.80;;
77359;SDS011;66426;51.454;7.266;2023-05-28T00:55:31;10.55;;;5.15;;
77359;SDS011;66426;51.454;7.266;2023-05-28T00:56:32;7.75;;;4.70;;
77359;SDS011;66426;51.454;7.266;2023-05-28T00:57:34;8.02;;;4.22;;
77359;SDS011;66426;51.454;7.266;2023-05-28T00:58:37;9.75;;;4.43;;
77359;SDS011;66426;51.454;7.266;2023-05-28T00:59:40;9.32;;;4.65;;
77359;SDS011;66426;51.454;7.266;2023-05-28T01:00:42;7.93;;;4.57;;
77359;SDS011;66426;51.454;7.266;2023-05-28T01:01:43;13.25;;;5.05;;
77359;SDS011;66426;51.454;7.266;2023-05-28T01:02:45;8.25;;;4.78;;
77359;SDS011;66426;51.454;7.266;2023-05-28T01:03:46;11.45;;;5.20;;
77359;SDS011;66426;51.454;7.266;2023-05-28T01:04:47;10.20;;;4.85;;
77359;SDS011;66426;51.454;7.266;2023-05-28T01:05:48;13.38;;;5.15;;
77359;SDS011;66426;51.454;7.266;2023-05-28T01:06:48;10.73;;;5.68;;
77359;SDS011;66426;51.454;7.266;2023-05-28T01:07:50;11.55;;;4.75;;
77359;SDS011;66426;51.454;7.266;2023-05-28T01:08:51;7.47;;;4.32;;
77359;SDS011;66426;51.454;7.266;2023-05-28T01:09:52;13.50;;;5.05;;
77359;SDS011;66426;51.454;7.266;2023-05-28T01:10:54;8.02;;;4.28;;
77359;SDS011;66426;51.454;7.266;2023-05-28T01:11:55;11.27;;;4.78;;
77359;SDS011;66426;51.454;7.266;2023-05-28T01:12:58;7.82;;;4.18;;
77359;SDS011;66426;51.454;7.266;2023-05-28T01:14:01;10.65;;;4.38;;
77359;SDS011;66426;51.454;7.266;2023-05-28T01:15:03;9.07;;;4.38;;
77359;SDS011;66426;51.454;7.266;2023-05-28T01:16:04;11.88;;;4.80;;
77359;SDS011;66426;51.454;7.266;2023-05-28T01:17:06;10.93;;;4.28;;
77359;SDS011;66426;51.454;7.266;2023-05-28T01:18:07;8.15;;;4.30;;
77359;SDS011;66426;51.454;7.266;2023-05-28T01:19:08;12.35;;;5.40;;
77359;SDS011;66426;51.454;7.266;2023-05-28T01:20:10;11.38;;;5.03;;
77359;SDS011;66426;51.454;7.266;2023-05-28T01:21:13;10.82;;;4.53;;
77359;SDS011;66426;51.454;7.266;2023-05-28T01:22:15;11.60;;;4.57;;
77359;SDS011;66426;51.454;7.266;2023-05-28T01:23:18;9.90;;;4.47;;
77359;SDS011;66426;51.454;7.266;2023-05-28T01:24:24;8.60;;;4.13;;
77359;SDS011;66426;51.454;7.266;2023-05-28T01:25:29;11.23;;;4.28;;
77359;SDS011;66426;51.454;7.266;2023-05-28T01:26:31;8.30;;;4.03;;
77359;SDS011;66426;51.454;7.266;2023-05-28T01:27:32;10.88;;;4.53;;
77359;SDS011;66426;51.454;7.266;2023-05-28T01:28:33;9.88;;;4.30;;
77359;SDS011;66426;51.454;7.266;2023-05-28T01:29:34;9.25;;;4.50;;
77359;SDS011;66426;51.454;7.266;2023-05-28T01:30:34;11.70;;;4.50;;
77359;SDS011;66426;51.454;7.266;2023-05-28T01:31:35;8.98;;;4.53;;
77359;SDS011;66426;51.454;7.266;2023-05-28T01:32:36;9.82;;;3.75;;
77359;SDS011;66426;51.454;7.266;2023-05-28T01:33:37;9.10;;;4.25;;
77359;SDS011;66426;51.454;7.266;2023-05-28T01:34:39;10.43;;;4.18;;
77359;SDS011;66426;51.454;7.266;2023-05-28T01:35:40;10.63;;;4.60;;
77359;SDS011;66426;51.454;7.266;2023-05-28T01:36:43;9.32;;;4.35;;
77359;SDS011;66426;51.454;7.266;2023-05-28T01:37:47;9.23;;;4.00;;
77359;SDS011;66426;51.454;7.266;2023-05-28T01:38:51;9.50;;;4.10;;
77359;SDS011;66426;51.454;7.266;2023-05-28T01:39:55;13.27;;;5.10;;
77359;SDS011;66426;51.454;7.266;2023-05-28T01:40:58;7.75;;;4.45;;
77359;SDS011;66426;51.454;7.266;2023-05-28T01:41:59;9.05;;;4.40;;
77359;SDS011;66426;51.454;7.266;2023-05-28T01:43:02;11.07;;;4.45;;
77359;SDS011;66426;51.454;7.266;2023-05-28T01:44:04;11.75;;;4.63;;
77359;SDS011;66426;51.454;7.266;2023-05-28T01:45:07;9.65;;;4.32;;
77359;SDS011;66426;51.454;7.266;2023-05-28T01:46:11;11.07;;;5.07;;
77359;SDS011;66426;51.454;7.266;2023-05-28T01:47:12;8.25;;;4.35;;
77359;SDS011;66426;51.454;7.266;2023-05-28T01:48:14;9.73;;;4.40;;
77359;SDS011;66426;51.454;7.266;2023-05-28T01:49:15;10.52;;;4.28;;
77359;SDS011;66426;51.454;7.266;2023-05-28T01:50:17;8.25;;;3.85;;
77359;SDS011;66426;51.454;7.266;2023-05-28T01:51:20;9.95;;;4.45;;
77359;SDS011;66426;51.454;7.266;2023-05-28T01:52:21;9.23;;;4.30;;
77359;SDS011;66426;51.454;7.266;2023-05-28T01:53:22;10.90;;;5.03;;
77359;SDS011;66426;51.454;7.266;2023-05-28T01:54:23;10.30;;;4.55;;
77359;SDS011;66426;51.454;7.266;2023-05-28T01:55:26;11.90;;;4.70;;
77359;SDS011;66426;51.454;7.266;2023-05-28T01:56:27;8.30;;;4.30;;
77359;SDS011;66426;51.454;7.266;2023-05-28T01:57:27;9.68;;;4.75;;
77359;SDS011;66426;51.454;7.266;2023-05-28T01:58:28;8.63;;;4.18;;
77359;SDS011;66426;51.454;7.266;2023-05-28T01:59:30;9.32;;;4.63;;
77359;SDS011;66426;51.454;7.266;2023-05-28T02:00:31;9.68;;;4.68;;
77359;SDS011;66426;51.454;7.266;2023-05-28T02:01:34;10.20;;;4.50;;
77359;SDS011;66426;51.454;7.266;2023-05-28T02:02:35;9.02;;;4.72;;
77359;SDS011;66426;51.454;7.266;2023-05-28T02:03:37;11.13;;;4.93;;
77359;SDS011;66426;51.454;7.266;2023-05-28T02:04:37;10.05;;;4.60;;
77359;SDS011;66426;51.454;7.266;2023-05-28T02:05:38;9.48;;;4.85;;
77359;SDS011;66426;51.454;7.266;2023-05-28T02:06:39;8.40;;;4.00;;
77359;SDS011;66426;51.454;7.266;2023-05-28T02:07:41;11.90;;;5.10;;
77359;SDS011;66426;51.454;7.266;2023-05-28T02:08:42;7.85;;;4.35;;
77359;SDS011;66426;51.454;7.266;2023-05-28T02:09:43;7.72;;;3.80;;
77359;SDS011;66426;51.454;7.266;2023-05-28T02:10:46;8.43;;;4.28;;
77359;SDS011;66426;51.454;7.266;2023-05-28T02:11:47;9.98;;;4.25;;
77359;SDS011;66426;51.454;7.266;2023-05-28T02:12:48;9.73;;;4.32;;
77359;SDS011;66426;51.454;7.266;2023-05-28T02:13:49;7.32;;;4.38;;
77359;SDS011;66426;51.454;7.266;2023-05-28T02:14:50;8.80;;;4.35;;
77359;SDS011;66426;51.454;7.266;2023-05-28T02:15:51;7.85;;;3.83;;
77359;SDS011;66426;51.454;7.266;2023-05-28T02:16:51;8.98;;;4.38;;
77359;SDS011;66426;51.454;7.266;2023-05-28T02:17:55;11.07;;;4.75;;
77359;SDS011;66426;51.454;7.266;2023-05-28T02:18:57;9.90;;;4.80;;
77359;SDS011;66426;51.454;7.266;2023-05-28T02:19:59;8.57;;;4.13;;
77359;SDS011;66426;51.454;7.266;2023-05-28T02:21:00;11.60;;;4.50;;
77359;SDS011;66426;51.454;7.266;2023-05-28T02:22:01;9.88;;;4.40;;
77359;SDS011;66426;51.454;7.266;2023-05-28T02:23:04;7.97;;;4.32;;
77359;SDS011;66426;51.454;7.266;2023-05-28T02:24:05;7.70;;;4.15;;
77359;SDS011;66426;51.454;7.266;2023-05-28T02:25:06;10.23;;;4.53;;
77359;SDS011;66426;51.454;7.266;2023-05-28T02:26:09;9.50;;;4.40;;
77359;SDS011;66426;51.454;7.266;2023-05-28T02:27:10;10.45;;;4.05;;
77359;SDS011;66426;51.454;7.266;2023-05-28T02:28:11;8.10;;;4.32;;
77359;SDS011;66426;51.454;7.266;2023-05-28T02:29:11;8.27;;;3.85;;
77359;SDS011;66426;51.454;7.266;2023-05-28T02:30:13;14.05;;;4.78;;
77359;SDS011;66426;51.454;7.266;2023-05-28T02:31:15;8.32;;;4.30;;
77359;SDS011;66426;51.454;7.266;2023-05-28T02:32:16;8.60;;;4.32;;
77359;SDS011;66426;51.454;7.266;2023-05-28T02:33:17;8.93;;;4.25;;
77359;SDS011;66426;51.454;7.266;2023-05-28T02:34:18;9.38;;;4.70;;
77359;SDS011;66426;51.454;7.266;2023-05-28T02:35:19;9.35;;;4.25;;
77359;SDS011;66426;51.454;7.266;2023-05-28T02:36:21;8.48;;;4.55;;
77359;SDS011;66426;51.454;7.266;2023-05-28T02:37:23;10.52;;;4.85;;
77359;SDS011;66426;51.454;7.266;2023-05-28T02:38:24;9.90;;;4.90;;
77359;SDS011;66426;51.454;7.266;2023-05-28T02:39:25;10.15;;;4.53;;
77359;SDS011;66426;51.454;7.266;2023-05-28T02:40:26;8.95;;;4.30;;
77359;SDS011;66426;51.454;7.266;2023-05-28T02:41:28;9.57;;;4.50;;
77359;SDS011;66426;51.454;7.266;2023-05-28T02:42:29;9.50;;;4.65;;
77359;SDS011;66426;51.454;7.266;2023-05-28T02:43:30;12.20;;;4.35;;
77359;SDS011;66426;51.454;7.266;2023-05-28T02:44:31;9.07;;;4.43;;
77359;SDS011;66426;51.454;7.266;2023-05-28T02:45:32;8.40;;;4.82;;
77359;SDS011;66426;51.454;7.266;2023-05-28T02:46:33;8.07;;;4.00;;
77359;SDS011;66426;51.454;7.266;2023-05-28T02:47:33;12.65;;;4.63;;
77359;SDS011;66426;51.454;7.266;2023-05-28T02:48:34;9.57;;;4.38;;
77359;SDS011;66426;51.454;7.266;2023-05-28T02:49:35;7.55;;;4.30;;
77359;SDS011;66426;51.454;7.266;2023-05-28T02:50:36;8.10;;;4.22;;
77359;SDS011;66426;51.454;7.266;2023-05-28T02:51:37;7.78;;;4.10;;
77359;SDS011;66426;51.454;7.266;2023-05-28T02:52:38;9.43;;;4.07;;
77359;SDS011;66426;51.454;7.266;2023-05-28T02:53:39;8.00;;;4.45;;
77359;SDS011;66426;51.454;7.266;2023-05-28T02:54:40;11.23;;;4.25;;
77359;SDS011;66426;51.454;7.266;2023-05-28T02:55:41;8.20;;;4.40;;
77359;SDS011;66426;51.454;7.266;2023-05-28T02:56:43;10.30;;;4.63;;
77359;SDS011;66426;51.454;7.266;2023-05-28T02:57:44;8.25;;;3.95;;
77359;SDS011;66426;51.454;7.266;2023-05-28T02:58:45;8.77;;;4.68;;
77359;SDS011;66426;51.454;7.266;2023-05-28T02:59:46;7.60;;;4.07;;
77359;SDS011;66426;51.454;7.266;2023-05-28T03:00:47;10.02;;;4.40;;
77359;SDS011;66426;51.454;7.266;2023-05-28T03:01:48;10.57;;;5.28;;
77359;SDS011;66426;51.454;7.266;2023-05-28T03:02:48;7.75;;;4.25;;
77359;SDS011;66426;51.454;7.266;2023-05-28T03:03:49;8.07;;;4.38;;
77359;SDS011;66426;51.454;7.266;2023-05-28T03:04:50;12.20;;;4.57;;
77359;SDS011;66426;51.454;7.266;2023-05-28T03:05:53;7.63;;;4.68;;
77359;SDS011;66426;51.454;7.266;2023-05-28T03:06:54;8.48;;;4.43;;
77359;SDS011;66426;51.454;7.266;2023-05-28T03:07:55;8.80;;;4.80;;
77359;SDS011;66426;51.454;7.266;2023-05-28T03:08:56;12.35;;;4.88;;
77359;SDS011;66426;51.454;7.266;2023-05-28T03:09:57;7.57;;;4.30;;
77359;SDS011;66426;51.454;7.266;2023-05-28T03:10:59;8.55;;;4.45;;
77359;SDS011;66426;51.454;7.266;2023-05-28T03:12:01;9.00;;;3.80;;
77359;SDS011;66426;51.454;7.266;2023-05-28T03:13:02;7.85;;;3.92;;
77359;SDS011;66426;51.454;7.266;2023-05-28T03:14:03;8.18;;;4.45;;
77359;SDS011;66426;51.454;7.266;2023-05-28T03:15:05;9.88;;;5.00;;
77359;SDS011;66426;51.454;7.266;2023-05-28T03:16:06;12.30;;;4.60;;
77359;SDS011;66426;51.454;7.266;2023-05-28T03:17:07;7.35;;;3.75;;
77359;SDS011;66426;51.454;7.266;2023-05-28T03:18:08;9.85;;;4.10;;
77359;SDS011;66426;51.454;7.266;2023-05-28T03:19:09;11.68;;;5.03;;
77359;SDS011;66426;51.454;7.266;2023-05-28T03:20:10;7.97;;;4.53;;
77359;SDS011;66426;51.454;7.266;2023-05-28T03:21:12;10.20;;;4.78;;
77359;SDS011;66426;51.454;7.266;2023-05-28T03:22:13;9.27;;;4.30;;
77359;SDS011;66426;51.454;7.266;2023-05-28T03:23:14;11.38;;;4.95;;
77359;SDS011;66426;51.454;7.266;2023-05-28T03:24:15;8.20;;;4.20;;
77359;SDS011;66426;51.454;7.266;2023-05-28T03:25:16;11.05;;;5.00;;
77359;SDS011;66426;51.454;7.266;2023-05-28T03:26:17;7.80;;;4.28;;
77359;SDS011;66426;51.454;7.266;2023-05-28T03:27:19;9.00;;;4.22;;
77359;SDS011;66426;51.454;7.266;2023-05-28T03:28:20;8.55;;;4.55;;
77359;SDS011;66426;51.454;7.266;2023-05-28T03:29:21;8.43;;;4.45;;
77359;SDS011;66426;51.454;7.266;2023-05-28T03:30:22;10.93;;;4.50;;
77359;SDS011;66426;51.454;7.266;2023-05-28T03:31:25;7.97;;;4.05;;
77359;SDS011;66426;51.454;7.266;2023-05-28T03:32:28;10.45;;;4.70;;
77359;SDS011;66426;51.454;7.266;2023-05-28T03:33:29;11.07;;;4.80;;
77359;SDS011;66426;51.454;7.266;2023-05-28T03:34:30;10.63;;;5.00;;
77359;SDS011;66426;51.454;7.266;2023-05-28T03:35:31;7.97;;;4.25;;
77359;SDS011;66426;51.454;7.266;2023-05-28T03:36:32;13.07;;;4.72;;
77359;SDS011;66426;51.454;7.266;2023-05-28T03:37:34;10.23;;;4.47;;
77359;SDS011;66426;51.454;7.266;2023-05-28T03:38:35;9.43;;;4.43;;
77359;SDS011;66426;51.454;7.266;2023-05-28T03:39:36;9.88;;;4.78;;
77359;SDS011;66426;51.454;7.266;2023-05-28T03:40:37;9.05;;;4.40;;
77359;SDS011;66426;51.454;7.266;2023-05-28T03:41:38;9.93;;;4.43;;
77359;SDS011;66426;51.454;7.266;2023-05-28T03:42:40;9.27;;;5.18;;
77359;SDS011;66426;51.454;7.266;2023-05-28T03:43:41;9.73;;;4.72;;
77359;SDS011;66426;51.454;7.266;2023-05-28T03:44:42;10.02;;;4.38;;
77359;SDS011;66426;51.454;7.266;2023-05-28T03:45:43;8.63;;;4.25;;
77359;SDS011;66426;51.454;7.266;2023-05-28T03:46:44;9.02;;;4.60;;
77359;SDS011;66426;51.454;7.266;2023-05-28T03:47:45;8.63;;;4.30;;
77359;SDS011;66426;51.454;7.266;2023-05-28T03:48:46;8.57;;;4.30;;
77359;SDS011;66426;51.454;7.266;2023-05-28T03:49:46;12.73;;;4.63;;
77359;SDS011;66426;51.454;7.266;2023-05-28T03:50:47;7.95;;;4.15;;
77359;SDS011;66426;51.454;7.266;2023-05-28T03:51:48;8.82;;;4.40;;
77359;SDS011;66426;51.454;7.266;2023-05-28T03:52:49;8.93;;;4.35;;
77359;SDS011;66426;51.454;7.266;2023-05-28T03:53:50;8.70;;;4.32;;
77359;SDS011;66426;51.454;7.266;2023-05-28T03:54:51;8.60;;;4.38;;
77359;SDS011;66426;51.454;7.266;2023-05-28T03:55:52;8.93;;;4.15;;
77359;SDS011;66426;51.454;7.266;2023-05-28T03:56:52;9.75;;;4.53;;
77359;SDS011;66426;51.454;7.266;2023-05-28T03:57:55;10.98;;;4.40;;
77359;SDS011;66426;51.454;7.266;2023-05-28T03:58:56;9.07;;;4.68;;
77359;SDS011;66426;51.454;7.266;2023-05-28T03:59:56;7.07;;;4.10;;
77359;SDS011;66426;51.454;7.266;2023-05-28T04:00:57;10.98;;;4.28;;
77359;SDS011;66426;51.454;7.266;2023-05-28T04:01:58;9.90;;;4.95;;
77359;SDS011;66426;51.454;7.266;2023-05-28T04:02:59;7.95;;;4.30;;
77359;SDS011;66426;51.454;7.266;2023-05-28T04:04:00;9.68;;;4.65;;
77359;SDS011;66426;51.454;7.266;2023-05-28T04:05:01;10.55;;;4.88;;
77359;SDS011;66426;51.454;7.266;2023-05-28T04:06:03;9.68;;;5.00;;
77359;SDS011;66426;51.454;7.266;2023-05-28T04:07:04;11.02;;;4.80;;
77359;SDS011;66426;51.454;7.266;2023-05-28T04:08:06;8.85;;;4.50;;
77359;SDS011;66426;51.454;7.266;2023-05-28T04:09:06;9.45;;;4.45;;
77359;SDS011;66426;51.454;7.266;2023-05-28T04:10:08;8.57;;;4.38;;
77359;SDS011;66426;51.454;7.266;2023-05-28T04:11:09;10.88;;;4.35;;
77359;SDS011;66426;51.454;7.266;2023-05-28T04:12:10;11.70;;;4.15;;
77359;SDS011;66426;51.454;7.266;2023-05-28T04:13:14;9.77;;;4.95;;
77359;SDS011;66426;51.454;7.266;2023-05-28T04:14:14;9.15;;;4.82;;
77359;SDS011;66426;51.454;7.266;2023-05-28T04:15:15;9.48;;;4.30;;
77359;SDS011;66426;51.454;7.266;2023-05-28T04:16:16;8.30;;;4.30;;
77359;SDS011;66426;51.454;7.266;2023-05-28T04:17:19;8.10;;;4.35;;
77359;SDS011;66426;51.454;7.266;2023-05-28T04:18:21;9.90;;;4.20;;
77359;SDS011;66426;51.454;7.266;2023-05-28T04:19:22;10.13;;;4.43;;
77359;SDS011;66426;51.454;7.266;2023-05-28T04:20:23;5.97;;;4.05;;
77359;SDS011;66426;51.454;7.266;2023-05-28T04:21:24;11.23;;;4.70;;
77359;SDS011;66426;51.454;7.266;2023-05-28T04:22:25;7.72;;;3.90;;
77359;SDS011;66426;51.454;7.266;2023-05-28T04:23:26;9.02;;;4.38;;
77359;SDS011;66426;51.454;7.266;2023-05-28T04:24:26;11.85;;;4.55;;
77359;SDS011;66426;51.454;7.266;2023-05-28T04:25:27;7.40;;;3.90;;
77359;SDS011;66426;51.454;7.266;2023-05-28T04:26:29;9.15;;;4.22;;
77359;SDS011;66426;51.454;7.266;2023-05-28T04:27:30;10.10;;;4.68;;
77359;SDS011;66426;51.454;7.266;2023-05-28T04:28:32;10.10;;;4.60;;
77359;SDS011;66426;51.454;7.266;2023-05-28T04:29:33;8.07;;;4.47;;
77359;SDS011;66426;51.454;7.266;2023-05-28T04:30:35;7.43;;;4.22;;
77359;SDS011;66426;51.454;7.266;2023-05-28T04:31:36;8.40;;;3.97;;
77359;SDS011;66426;51.454;7.266;2023-05-28T04:32:37;9.30;;;4.72;;
77359;SDS011;66426;51.454;7.266;2023-05-28T04:33:40;8.30;;;4.35;;
77359;SDS011;66426;51.454;7.266;2023-05-28T04:34:41;9.73;;;4.53;;
77359;SDS011;66426;51.454;7.266;2023-05-28T04:35:42;7.32;;;4.03;;
77359;SDS011;66426;51.454;7.266;2023-05-28T04:36:43;12.02;;;4.45;;
77359;SDS011;66426;51.454;7.266;2023-05-28T04:37:44;9.00;;;4.50;;
77359;SDS011;66426;51.454;7.266;2023-05-28T04:38:45;11.27;;;5.25;;
77359;SDS011;66426;51.454;7.266;2023-05-28T04:39:47;9.10;;;4.50;;
77359;SDS011;66426;51.454;7.266;2023-05-28T04:40:48;10.68;;;4.20;;
77359;SDS011;66426;51.454;7.266;2023-05-28T04:42:54;10.60;;;4.15;;
77359;SDS011;66426;51.454;7.266;2023-05-28T04:43:57;9.13;;;4.53;;
77359;SDS011;66426;51.454;7.266;2023-05-28T04:44:58;8.65;;;4.40;;
77359;SDS011;66426;51.454;7.266;2023-05-28T04:45:59;8.13;;;4.30;;
77359;SDS011;66426;51.454;7.266;2023-05-28T04:47:01;11.05;;;4.30;;
77359;SDS011;66426;51.454;7.266;2023-05-28T04:48:04;8.32;;;4.20;;
77359;SDS011;66426;51.454;7.266;2023-05-28T04:49:05;7.95;;;3.90;;
77359;SDS011;66426;51.454;7.266;2023-05-28T04:50:06;10.40;;;4.47;;
77359;SDS011;66426;51.454;7.266;2023-05-28T04:51:07;10.63;;;4.43;;
77359;SDS011;66426;51.454;7.266;2023-05-28T04:52:08;9.18;;;4.43;;
77359;SDS011;66426;51.454;7.266;2023-05-28T04:53:09;9.65;;;4.47;;
77359;SDS011;66426;51.454;7.266;2023-05-28T04:54:10;8.75;;;4.00;;
77359;SDS011;66426;51.454;7.266;2023-05-28T04:55:11;9.45;;;4.38;;
77359;SDS011;66426;51.454;7.266;2023-05-28T04:56:12;6.68;;;3.80;;
77359;SDS011;66426;51.454;7.266;2023-05-28T04:57:14;9.25;;;4.30;;
77359;SDS011;66426;51.454;7.266;2023-05-28T04:58:15;10.02;;;4.70;;
77359;SDS011;66426;51.454;7.266;2023-05-28T04:59:17;9.13;;;3.95;;
77359;SDS011;66426;51.454;7.266;2023-05-28T05:00:18;8.05;;;4.53;;
77359;SDS011;66426;51.454;7.266;2023-05-28T05:01:20;9.15;;;3.92;;
77359;SDS011;66426;51.454;7.266;2023-05-28T05:02:22;10.32;;;4.57;;
77359;SDS011;66426;51.454;7.266;2023-05-28T05:03:23;6.88;;;3.90;;
77359;SDS011;66426;51.454;7.266;2023-05-28T05:04:24;9.00;;;3.85;;
77359;SDS011;66426;51.454;7.266;2023-05-28T05:05:25;8.43;;;3.95;;
77359;SDS011;66426;51.454;7.266;2023-05-28T05:06:26;9.32;;;4.72;;
77359;SDS011;66426;51.454;7.266;2023-05-28T05:07:27;9.48;;;4.47;;
77359;SDS011;66426;51.454;7.266;2023-05-28T05:08:28;7.50;;;4.20;;
77359;SDS011;66426;51.454;7.266;2023-05-28T05:09:30;7.38;;;4.25;;
77359;SDS011;66426;51.454;7.266;2023-05-28T05:10:31;9.63;;;4.70;;
77359;SDS011;66426;51.454;7.266;2023-05-28T05:11:32;9.73;;;4.50;;
77359;SDS011;66426;51.454;7.266;2023-05-28T05:12:33;9.10;;;4.47;;
77359;SDS011;66426;51.454;7.266;2023-05-28T05:13:34;13.32;;;4.63;;
77359;SDS011;66426;51.454;7.266;2023-05-28T05:14:36;10.32;;;4.90;;
77359;SDS011;66426;51.454;7.266;2023-05-28T05:15:37;12.90;;;5.47;;
77359;SDS011;66426;51.454;7.266;2023-05-28T05:16:38;9.60;;;4.60;;
77359;SDS011;66426;51.454;7.266;2023-05-28T05:17:39;12.40;;;5.05;;
77359;SDS011;66426;51.454;7.266;2023-05-28T05:18:41;9.05;;;4.72;;
77359;SDS011;66426;51.454;7.266;2023-05-28T05:19:42;10.45;;;4.95;;
77359;SDS011;66426;51.454;7.266;2023-05-28T05:20:43;8.90;;;4.90;;
77359;SDS011;66426;51.454;7.266;2023-05-28T05:21:44;10.35;;;4.70;;
77359;SDS011;66426;51.454;7.266;2023-05-28T05:22:45;12.52;;;5.20;;
77359;SDS011;66426;51.454;7.266;2023-05-28T05:23:46;13.00;;;5.45;;
77359;SDS011;66426;51.454;7.266;2023-05-28T05:24:47;9.68;;;5.43;;
77359;SDS011;66426;51.454;7.266;2023-05-28T05:25:48;12.43;;;4.93;;
77359;SDS011;66426;51.454;7.266;2023-05-28T05:26:49;12.73;;;5.85;;
77359;SDS011;66426;51.454;7.266;2023-05-28T05:27:50;14.38;;;5.95;;
77359;SDS011;66426;51.454;7.266;2023-05-28T05:28:51;11.02;;;4.93;;
77359;SDS011;66426;51.454;7.266;2023-05-28T05:29:53;11.00;;;5.03;;
77359;SDS011;66426;51.454;7.266;2023-05-28T05:30:54;9.65;;;5.20;;
77359;SDS011;66426;51.454;7.266;2023-05-28T05:31:56;11.68;;;5.70;;
77359;SDS011;66426;51.454;7.266;2023-05-28T05:32:58;11.30;;;5.90;;
77359;SDS011;66426;51.454;7.266;2023-05-28T05:33:59;12.80;;;5.82;;
77359;SDS011;66426;51.454;7.266;2023-05-28T05:35:00;11.23;;;5.82;;
77359;SDS011;66426;51.454;7.266;2023-05-28T05:36:00;14.50;;;6.10;;
77359;SDS011;66426;51.454;7.266;2023-05-28T05:37:01;10.48;;;5.35;;
77359;SDS011;66426;51.454;7.266;2023-05-28T05:38:03;12.23;;;5.75;;
77359;SDS011;66426;51.454;7.266;2023-05-28T05:39:03;9.73;;;5.65;;
77359;SDS011;66426;51.454;7.266;2023-05-28T05:40:05;11.43;;;6.05;;
77359;SDS011;66426;51.454;7.266;2023-05-28T05:41:06;12.80;;;6.38;;
77359;SDS011;66426;51.454;7.266;2023-05-28T05:42:07;11.38;;;6.10;;
77359;SDS011;66426;51.454;7.266;2023-05-28T05:43:08;15.98;;;6.18;;
77359;SDS011;66426;51.454;7.266;2023-05-28T05:44:09;12.85;;;6.43;;
77359;SDS011;66426;51.454;7.266;2023-05-28T05:45:11;16.48;;;6.82;;
77359;SDS011;66426;51.454;7.266;2023-05-28T05:46:12;12.68;;;6.10;;
77359;SDS011;66426;51.454;7.266;2023-05-28T05:47:13;14.63;;;6.75;;
77359;SDS011;66426;51.454;7.266;2023-05-28T05:48:14;13.50;;;5.75;;
77359;SDS011;66426;51.454;7.266;2023-05-28T05:49:15;15.25;;;7.00;;
77359;SDS011;66426;51.454;7.266;2023-05-28T05:50:16;12.75;;;6.10;;
77359;SDS011;66426;51.454;7.266;2023-05-28T05:51:17;14.07;;;6.68;;
77359;SDS011;66426;51.454;7.266;2023-05-28T05:52:19;11.32;;;5.95;;
77359;SDS011;66426;51.454;7.266;2023-05-28T05:53:20;13.43;;;6.82;;
77359;SDS011;66426;51.454;7.266;2023-05-28T05:54:21;15.27;;;6.43;;
77359;SDS011;66426;51.454;7.266;2023-05-28T05:55:22;13.63;;;6.40;;
77359;SDS011;66426;51.454;7.266;2023-05-28T05:56:23;15.98;;;7.50;;
77359;SDS011;66426;51.454;7.266;2023-05-28T05:57:26;17.00;;;7.68;;
77359;SDS011;66426;51.454;7.266;2023-05-28T05:58:28;18.75;;;7.38;;
77359;SDS011;66426;51.454;7.266;2023-05-28T05:59:29;16.45;;;8.00;;
77359;SDS011;66426;51.454;7.266;2023-05-28T06:00:31;15.27;;;8.65;;
77359;SDS011;66426;51.454;7.266;2023-05-28T06:01:33;20.48;;;9.57;;
77359;SDS011;66426;51.454;7.266;2023-05-28T06:02:34;16.80;;;9.05;;
77359;SDS011;66426;51.454;7.266;2023-05-28T06:03:36;15.45;;;8.60;;
77359;SDS011;66426;51.454;7.266;2023-05-28T06:04:37;16.65;;;8.88;;
77359;SDS011;66426;51.454;7.266;2023-05-28T06:05:38;16.98;;;9.68;;
77359;SDS011;66426;51.454;7.266;2023-05-28T06:06:39;21.25;;;9.25;;
77359;SDS011;66426;51.454;7.266;2023-05-28T06:07:40;18.98;;;10.05;;